createdAt,value
2022-09-26T00:00:13.081Z,6.60
2022-09-26T00:01:13.076Z,5.80
2022-09-26T00:02:13.072Z,5.90
2022-09-26T00:03:13.024Z,6.50
2022-09-26T00:04:13.031Z,5.30
2022-09-26T00:05:13.033Z,5.80
2022-09-26T00:06:13.076Z,5.60
2022-09-26T00:07:12.960Z,5.80
2022-09-26T00:08:12.961Z,5.90
2022-09-26T00:09:13.036Z,6.10
2022-09-26T00:10:12.939Z,5.00
2022-09-26T00:11:12.939Z,6.50
2022-09-26T00:12:12.933Z,6.70
2022-09-26T00:13:12.975Z,5.90
2022-09-26T00:14:12.919Z,6.10
2022-09-26T00:15:12.880Z,6.00
2022-09-26T00:16:12.943Z,6.10
2022-09-26T00:17:12.915Z,5.90
2022-09-26T00:18:12.847Z,5.50
2022-09-26T00:19:12.971Z,6.50
2022-09-26T00:20:12.832Z,6.60
2022-09-26T00:21:12.866Z,6.30
2022-09-26T00:22:12.884Z,6.40
2022-09-26T00:23:12.778Z,6.90
2022-09-26T00:24:13.280Z,6.10
2022-09-26T00:25:13.248Z,5.90
2022-09-26T00:26:12.814Z,5.70
2022-09-26T00:27:12.752Z,6.00
2022-09-26T00:28:12.873Z,6.70
2022-09-26T00:29:12.827Z,6.60
2022-09-26T00:30:12.717Z,6.40
2022-09-26T00:31:12.735Z,6.30
2022-09-26T00:32:12.696Z,6.60
2022-09-26T00:33:12.666Z,6.30
2022-09-26T00:34:12.687Z,6.60
2022-09-26T00:35:12.659Z,7.10
2022-09-26T00:36:12.656Z,8.80
2022-09-26T00:37:12.626Z,7.90
2022-09-26T00:38:12.631Z,8.00
2022-09-26T00:39:12.679Z,7.60
2022-09-26T00:40:12.662Z,7.90
2022-09-26T00:41:12.587Z,7.80
2022-09-26T00:42:12.577Z,7.70
2022-09-26T00:43:12.567Z,7.10
2022-09-26T00:44:13.417Z,7.60
2022-09-26T00:45:12.536Z,7.60
2022-09-26T00:46:12.590Z,7.60
2022-09-26T00:47:12.516Z,7.50
2022-09-26T00:48:12.511Z,7.00
2022-09-26T00:49:12.524Z,7.30
2022-09-26T00:50:12.496Z,6.40
2022-09-26T00:51:12.465Z,7.60
2022-09-26T00:52:12.491Z,6.60
2022-09-26T00:53:12.453Z,6.60
2022-09-26T00:54:12.448Z,7.10
2022-09-26T00:55:12.424Z,7.30
2022-09-26T00:56:12.444Z,6.90
2022-09-26T00:57:12.395Z,6.60
2022-09-26T00:58:12.406Z,6.70
2022-09-26T00:59:12.454Z,6.20
2022-09-26T01:00:12.398Z,6.30
2022-09-26T01:01:12.430Z,5.90
2022-09-26T01:02:12.418Z,6.10
2022-09-26T01:03:12.335Z,6.00
2022-09-26T01:04:13.240Z,5.50
2022-09-26T01:05:12.396Z,6.00
2022-09-26T01:06:12.322Z,5.90
2022-09-26T01:07:12.294Z,7.00
2022-09-26T01:08:12.294Z,5.10
2022-09-26T01:09:12.341Z,6.30
2022-09-26T01:10:12.377Z,6.20
2022-09-26T01:11:16.650Z,6.00
2022-09-26T01:12:12.254Z,5.70
2022-09-26T01:13:12.230Z,5.60
2022-09-26T01:14:12.228Z,6.00
2022-09-26T01:15:12.203Z,6.00
2022-09-26T01:16:12.246Z,6.80
2022-09-26T01:17:12.191Z,7.00
2022-09-26T01:18:12.191Z,7.30
2022-09-26T01:19:12.191Z,6.80
2022-09-26T01:20:12.162Z,7.00
2022-09-26T01:21:12.166Z,6.10
2022-09-26T01:22:12.186Z,5.90
2022-09-26T01:23:12.112Z,5.90
2022-09-26T01:24:12.111Z,5.60
2022-09-26T01:25:12.126Z,6.20
2022-09-26T01:26:12.154Z,6.00
2022-09-26T01:27:12.071Z,6.30
2022-09-26T01:28:12.080Z,7.10
2022-09-26T01:29:12.148Z,6.20
2022-09-26T01:30:12.052Z,6.40
2022-09-26T01:31:12.124Z,6.40
2022-09-26T01:32:12.032Z,9.00
2022-09-26T01:33:12.021Z,9.00
2022-09-26T01:34:12.011Z,8.70
2022-09-26T01:35:11.982Z,9.00
2022-09-26T01:36:12.151Z,9.80
2022-09-26T01:37:12.001Z,9.60
2022-09-26T01:38:11.963Z,8.90
2022-09-26T01:39:12.010Z,9.20
2022-09-26T01:40:11.979Z,8.90
2022-09-26T01:41:11.911Z,8.70
2022-09-26T01:42:11.930Z,8.00
2022-09-26T01:43:11.914Z,8.00
2022-09-26T01:44:11.901Z,8.00
2022-09-26T01:45:12.621Z,6.90
2022-09-26T01:46:11.959Z,7.40
2022-09-26T01:47:11.888Z,6.20
2022-09-26T01:48:11.839Z,6.20
2022-09-26T01:49:11.898Z,6.20
2022-09-26T01:50:11.810Z,6.60
2022-09-26T01:51:11.848Z,6.20
2022-09-26T01:52:11.790Z,6.20
2022-09-26T01:53:11.801Z,6.40
2022-09-26T01:54:11.780Z,6.60
2022-09-26T01:55:11.770Z,6.20
2022-09-26T01:56:11.751Z,5.70
2022-09-26T01:57:11.811Z,6.40
2022-09-26T01:58:11.755Z,5.90
2022-09-26T01:59:11.776Z,5.70
2022-09-26T02:00:11.719Z,5.90
2022-09-26T02:01:11.770Z,6.10
2022-09-26T02:02:11.745Z,6.10
2022-09-26T02:03:11.687Z,5.80
2022-09-26T02:04:11.941Z,5.50
2022-09-26T02:05:12.491Z,5.80
2022-09-26T02:06:12.406Z,5.80
2022-09-26T02:07:11.651Z,6.00
2022-09-26T02:08:11.617Z,6.00
2022-09-26T02:09:11.666Z,5.90
2022-09-26T02:10:11.610Z,6.00
2022-09-26T02:11:11.609Z,6.10
2022-09-26T02:12:11.568Z,6.20
2022-09-26T02:13:11.578Z,5.50
2022-09-26T02:14:11.548Z,6.10
2022-09-26T02:15:11.579Z,6.40
2022-09-26T02:16:11.578Z,6.10
2022-09-26T02:17:11.536Z,6.50
2022-09-26T02:18:11.538Z,6.20
2022-09-26T02:19:11.574Z,6.50
2022-09-26T02:20:11.486Z,6.40
2022-09-26T02:21:11.489Z,7.50
2022-09-26T02:22:11.489Z,6.10
2022-09-26T02:23:12.040Z,6.50
2022-09-26T02:24:11.449Z,6.70
2022-09-26T02:25:11.448Z,6.20
2022-09-26T02:26:12.157Z,6.00
2022-09-26T02:27:12.171Z,6.30
2022-09-26T02:28:11.398Z,7.10
2022-09-26T02:29:11.446Z,6.70
2022-09-26T02:30:11.376Z,6.00
2022-09-26T02:31:11.420Z,5.80
2022-09-26T02:32:11.393Z,5.70
2022-09-26T02:33:11.356Z,5.90
2022-09-26T02:34:11.339Z,5.60
2022-09-26T02:35:11.343Z,6.40
2022-09-26T02:36:11.306Z,6.30
2022-09-26T02:37:11.313Z,5.20
2022-09-26T02:38:11.284Z,7.00
2022-09-26T02:39:11.303Z,6.20
2022-09-26T02:40:11.322Z,5.70
2022-09-26T02:41:11.267Z,6.40
2022-09-26T02:42:11.246Z,5.40
2022-09-26T02:43:11.236Z,5.50
2022-09-26T02:44:11.215Z,4.70
2022-09-26T02:45:11.245Z,5.20
2022-09-26T02:46:11.268Z,4.80
2022-09-26T02:47:11.237Z,4.80
2022-09-26T02:48:11.184Z,4.80
2022-09-26T02:49:11.183Z,4.90
2022-09-26T02:50:11.155Z,5.10
2022-09-26T02:51:11.159Z,4.90
2022-09-26T02:52:11.136Z,4.80
2022-09-26T02:53:11.143Z,4.80
2022-09-26T02:54:11.104Z,4.60
2022-09-26T02:55:11.193Z,4.50
2022-09-26T02:56:11.094Z,4.90
2022-09-26T02:57:11.093Z,4.40
2022-09-26T02:58:11.075Z,4.30
2022-09-26T02:59:11.075Z,4.40
2022-09-26T03:00:11.034Z,3.70
2022-09-26T03:01:11.110Z,4.10
2022-09-26T03:02:11.023Z,3.60
2022-09-26T03:03:11.043Z,3.90
2022-09-26T03:04:11.013Z,4.90
2022-09-26T03:05:11.073Z,4.00
2022-09-26T03:06:10.973Z,3.70
2022-09-26T03:07:10.993Z,3.80
2022-09-26T03:08:11.813Z,3.60
2022-09-26T03:09:10.995Z,3.70
2022-09-26T03:10:10.936Z,4.40
2022-09-26T03:11:10.948Z,4.30
2022-09-26T03:12:10.903Z,4.10
2022-09-26T03:13:10.914Z,3.70
2022-09-26T03:14:10.893Z,3.80
2022-09-26T03:15:10.894Z,4.10
2022-09-26T03:16:10.918Z,3.80
2022-09-26T03:17:10.872Z,4.40
2022-09-26T03:18:10.843Z,3.80
2022-09-26T03:19:10.846Z,3.40
2022-09-26T03:20:10.822Z,3.70
2022-09-26T03:21:10.833Z,4.00
2022-09-26T03:22:10.791Z,4.30
2022-09-26T03:23:10.981Z,3.60
2022-09-26T03:24:10.772Z,3.50
2022-09-26T03:25:10.802Z,3.70
2022-09-26T03:26:10.751Z,4.10
2022-09-26T03:27:10.802Z,3.70
2022-09-26T03:28:11.696Z,3.70
2022-09-26T03:29:11.622Z,4.10
2022-09-26T03:30:10.720Z,3.60
2022-09-26T03:31:10.712Z,3.70
2022-09-26T03:32:10.779Z,4.10
2022-09-26T03:33:10.682Z,3.90
2022-09-26T03:34:10.691Z,4.00
2022-09-26T03:35:10.673Z,3.80
2022-09-26T03:36:10.642Z,3.80
2022-09-26T03:37:10.639Z,4.10
2022-09-26T03:38:14.248Z,3.40
2022-09-26T03:39:10.622Z,3.70
2022-09-26T03:40:10.621Z,3.50
2022-09-26T03:41:10.611Z,3.80
2022-09-26T03:42:10.570Z,4.20
2022-09-26T03:43:10.581Z,8.00
2022-09-26T03:44:10.550Z,7.50
2022-09-26T03:45:10.558Z,7.50
2022-09-26T03:46:10.591Z,8.00
2022-09-26T03:47:10.533Z,7.50
2022-09-26T03:48:10.520Z,7.50
2022-09-26T03:49:11.339Z,7.80
2022-09-26T03:50:10.490Z,5.90
2022-09-26T03:51:10.942Z,4.90
2022-09-26T03:52:10.470Z,5.00
2022-09-26T03:53:10.470Z,4.70
2022-09-26T03:54:10.439Z,4.90
2022-09-26T03:55:10.449Z,5.50
2022-09-26T03:56:10.611Z,5.60
2022-09-26T03:57:10.440Z,5.90
2022-09-26T03:58:10.399Z,5.80
2022-09-26T03:59:10.400Z,5.70
2022-09-26T04:00:10.415Z,5.90
2022-09-26T04:01:10.495Z,5.60
2022-09-26T04:02:10.389Z,5.10
2022-09-26T04:03:10.375Z,5.70
2022-09-26T04:04:10.330Z,6.20
2022-09-26T04:05:10.331Z,5.50
2022-09-26T04:06:10.308Z,6.00
2022-09-26T04:07:10.306Z,6.40
2022-09-26T04:08:11.178Z,5.50
2022-09-26T04:09:15.878Z,5.80
2022-09-26T04:10:11.269Z,5.40
2022-09-26T04:11:10.278Z,5.40
2022-09-26T04:12:10.227Z,5.40
2022-09-26T04:13:10.239Z,5.60
2022-09-26T04:14:10.259Z,5.80
2022-09-26T04:15:10.220Z,5.50
2022-09-26T04:16:10.212Z,5.00
2022-09-26T04:17:10.187Z,5.10
2022-09-26T04:18:10.158Z,4.90
2022-09-26T04:19:10.173Z,5.60
2022-09-26T04:20:10.188Z,5.60
2022-09-26T04:21:10.303Z,5.70
2022-09-26T04:22:10.119Z,6.00
2022-09-26T04:23:10.125Z,5.10
2022-09-26T04:24:10.097Z,5.20
2022-09-26T04:25:10.105Z,5.40
2022-09-26T04:26:10.067Z,5.30
2022-09-26T04:27:10.106Z,4.80
2022-09-26T04:28:10.046Z,5.10
2022-09-26T04:29:10.171Z,5.00
2022-09-26T04:30:10.170Z,4.70
2022-09-26T04:31:10.065Z,4.50
2022-09-26T04:32:10.005Z,5.20
2022-09-26T04:33:10.015Z,5.30
2022-09-26T04:34:09.966Z,5.40
2022-09-26T04:35:09.995Z,5.70
2022-09-26T04:36:09.966Z,5.40
2022-09-26T04:37:09.966Z,5.40
2022-09-26T04:38:09.936Z,5.40
2022-09-26T04:39:09.936Z,6.30
2022-09-26T04:40:09.906Z,6.30
2022-09-26T04:41:09.963Z,6.40
2022-09-26T04:42:10.062Z,6.60
2022-09-26T04:43:09.905Z,6.20
2022-09-26T04:44:09.876Z,5.70
2022-09-26T04:45:09.876Z,5.80
2022-09-26T04:46:09.905Z,6.50
2022-09-26T04:47:09.853Z,6.10
2022-09-26T04:48:09.815Z,5.90
2022-09-26T04:49:10.572Z,6.70
2022-09-26T04:50:09.830Z,6.10
2022-09-26T04:51:10.224Z,6.20
2022-09-26T04:52:09.790Z,6.10
2022-09-26T04:53:10.233Z,5.10
2022-09-26T04:54:09.745Z,4.50
2022-09-26T04:55:09.753Z,5.80
2022-09-26T04:56:09.725Z,5.70
2022-09-26T04:57:10.074Z,5.60
2022-09-26T04:58:09.695Z,5.50
2022-09-26T04:59:09.732Z,5.50
2022-09-26T05:00:09.677Z,5.90
2022-09-26T05:01:09.734Z,5.20
2022-09-26T05:02:09.742Z,5.00
2022-09-26T05:03:09.664Z,4.80
2022-09-26T05:04:09.634Z,5.10
2022-09-26T05:05:09.704Z,5.00
2022-09-26T05:06:09.734Z,5.00
2022-09-26T05:07:09.611Z,4.40
2022-09-26T05:08:09.637Z,4.70
2022-09-26T05:09:09.687Z,4.40
2022-09-26T05:10:10.392Z,4.10
2022-09-26T05:11:09.595Z,4.50
2022-09-26T05:12:09.773Z,4.40
2022-09-26T05:13:09.547Z,4.80
2022-09-26T05:14:09.534Z,5.50
2022-09-26T05:15:09.550Z,5.00
2022-09-26T05:16:09.519Z,4.40
2022-09-26T05:17:09.505Z,4.70
2022-09-26T05:18:09.475Z,4.80
2022-09-26T05:19:09.545Z,4.20
2022-09-26T05:20:09.452Z,5.00
2022-09-26T05:21:09.908Z,4.60
2022-09-26T05:22:09.426Z,4.10
2022-09-26T05:23:10.382Z,4.50
2022-09-26T05:24:09.420Z,4.50
2022-09-26T05:25:09.413Z,4.70
2022-09-26T05:26:09.394Z,4.00
2022-09-26T05:27:09.392Z,4.40
2022-09-26T05:28:09.361Z,4.00
2022-09-26T05:29:09.559Z,4.50
2022-09-26T05:30:09.342Z,4.80
2022-09-26T05:31:10.173Z,5.20
2022-09-26T05:32:09.799Z,5.10
2022-09-26T05:33:09.320Z,5.10
2022-09-26T05:34:09.291Z,4.50
2022-09-26T05:35:09.298Z,4.70
2022-09-26T05:36:09.274Z,5.00
2022-09-26T05:37:09.299Z,4.60
2022-09-26T05:38:09.252Z,4.70
2022-09-26T05:39:09.266Z,5.10
2022-09-26T05:40:09.220Z,5.20
2022-09-26T05:41:09.240Z,4.20
2022-09-26T05:42:09.211Z,4.50
2022-09-26T05:43:09.201Z,4.30
2022-09-26T05:44:09.188Z,4.30
2022-09-26T05:45:09.187Z,5.50
2022-09-26T05:46:09.150Z,5.30
2022-09-26T05:47:09.314Z,5.50
2022-09-26T05:48:09.135Z,5.30
2022-09-26T05:49:09.168Z,4.70
2022-09-26T05:50:09.121Z,5.10
2022-09-26T05:51:10.027Z,5.30
2022-09-26T05:52:09.095Z,4.50
2022-09-26T05:53:09.090Z,5.20
2022-09-26T05:54:09.069Z,5.00
2022-09-26T05:55:09.102Z,5.30
2022-09-26T05:56:09.039Z,4.90
2022-09-26T05:57:09.040Z,4.90
2022-09-26T05:58:09.010Z,4.30
2022-09-26T05:59:09.068Z,4.60
2022-09-26T06:00:09.001Z,4.20
2022-09-26T06:01:09.013Z,5.20
2022-09-26T06:02:09.015Z,5.50
2022-09-26T06:03:08.969Z,5.50
2022-09-26T06:04:08.967Z,5.60
2022-09-26T06:05:08.929Z,5.50
2022-09-26T06:06:08.957Z,5.70
2022-09-26T06:07:08.909Z,6.30
2022-09-26T06:08:08.908Z,6.10
2022-09-26T06:09:08.893Z,6.40
2022-09-26T06:10:09.720Z,5.60
2022-09-26T06:11:09.618Z,6.20
2022-09-26T06:12:09.576Z,5.70
2022-09-26T06:13:08.847Z,6.50
2022-09-26T06:14:09.578Z,6.70
2022-09-26T06:15:08.818Z,6.80
2022-09-26T06:16:08.861Z,7.20
2022-09-26T06:17:08.788Z,7.40
2022-09-26T06:18:08.849Z,6.70
2022-09-26T06:19:08.828Z,7.40
2022-09-26T06:20:08.788Z,8.30
2022-09-26T06:21:09.693Z,7.60
2022-09-26T06:22:08.747Z,7.90
2022-09-26T06:23:08.727Z,7.40
2022-09-26T06:24:08.730Z,7.70
2022-09-26T06:25:08.728Z,7.50
2022-09-26T06:26:08.706Z,7.20
2022-09-26T06:27:08.678Z,6.60
2022-09-26T06:28:08.675Z,7.50
2022-09-26T06:29:08.746Z,7.40
2022-09-26T06:30:08.658Z,7.40
2022-09-26T06:31:08.667Z,7.70
2022-09-26T06:32:08.938Z,7.00
2022-09-26T06:33:08.617Z,7.40
2022-09-26T06:34:08.619Z,6.30
2022-09-26T06:35:08.587Z,6.30
2022-09-26T06:36:08.698Z,6.80
2022-09-26T06:37:08.567Z,6.80
2022-09-26T06:38:08.577Z,6.40
2022-09-26T06:39:08.563Z,6.40
2022-09-26T06:40:08.547Z,5.70
2022-09-26T06:41:08.517Z,6.20
2022-09-26T06:42:08.537Z,5.90
2022-09-26T06:43:08.497Z,5.30
2022-09-26T06:44:08.500Z,5.90
2022-09-26T06:45:08.597Z,6.60
2022-09-26T06:46:08.807Z,6.80
2022-09-26T06:47:08.490Z,6.60
2022-09-26T06:48:09.403Z,5.60
2022-09-26T06:49:08.449Z,5.70
2022-09-26T06:50:08.441Z,5.90
2022-09-26T06:51:08.426Z,6.20
2022-09-26T06:52:09.257Z,5.90
2022-09-26T06:53:09.175Z,6.30
2022-09-26T06:54:08.395Z,6.20
2022-09-26T06:55:08.377Z,7.40
2022-09-26T06:56:08.389Z,6.20
2022-09-26T06:57:12.835Z,6.00
2022-09-26T06:58:09.347Z,6.20
2022-09-26T06:59:08.317Z,6.20
2022-09-26T07:00:08.386Z,6.90
2022-09-26T07:01:08.420Z,5.90
2022-09-26T07:02:08.492Z,6.30
2022-09-26T07:03:08.341Z,6.20
2022-09-26T07:04:08.317Z,6.40
2022-09-26T07:05:08.266Z,5.80
2022-09-26T07:06:08.246Z,6.50
2022-09-26T07:07:08.246Z,5.90
2022-09-26T07:08:08.229Z,7.00
2022-09-26T07:09:12.579Z,6.40
2022-09-26T07:10:08.205Z,5.80
2022-09-26T07:11:31.280Z,6.10
2022-09-26T07:12:14.567Z,5.80
2022-09-26T07:13:09.176Z,6.10
2022-09-26T07:14:08.166Z,5.60
2022-09-26T07:15:08.146Z,5.50
2022-09-26T07:16:08.221Z,5.60
2022-09-26T07:17:08.220Z,4.30
2022-09-26T07:18:08.129Z,5.50
2022-09-26T07:19:08.186Z,5.70
2022-09-26T07:20:08.103Z,5.50
2022-09-26T07:21:08.074Z,5.50
2022-09-26T07:22:08.079Z,5.40
2022-09-26T07:23:08.045Z,5.30
2022-09-26T07:24:08.064Z,4.80
2022-09-26T07:25:08.015Z,5.20
2022-09-26T07:26:08.046Z,5.40
2022-09-26T07:27:08.005Z,5.10
2022-09-26T07:28:08.025Z,4.90
2022-09-26T07:29:07.974Z,5.00
2022-09-26T07:30:07.985Z,5.30
2022-09-26T07:31:08.086Z,4.20
2022-09-26T07:32:07.952Z,4.10
2022-09-26T07:33:08.166Z,4.40
2022-09-26T07:34:08.235Z,4.80
2022-09-26T07:35:07.917Z,5.40
2022-09-26T07:36:07.914Z,5.10
2022-09-26T07:37:07.891Z,4.90
2022-09-26T07:38:07.951Z,4.90
2022-09-26T07:39:07.864Z,4.70
2022-09-26T07:40:07.863Z,4.60
2022-09-26T07:41:07.846Z,5.10
2022-09-26T07:42:07.835Z,4.50
2022-09-26T07:43:19.610Z,5.30
2022-09-26T07:45:24.760Z,5.20
2022-09-26T07:46:08.858Z,5.10
2022-09-26T07:47:07.833Z,4.20
2022-09-26T07:48:07.790Z,4.80
2022-09-26T07:49:07.754Z,4.70
2022-09-26T07:50:07.753Z,4.80
2022-09-26T07:51:09.407Z,4.50
2022-09-26T07:52:07.723Z,4.40
2022-09-26T07:53:07.725Z,4.90
2022-09-26T07:54:08.432Z,4.10
2022-09-26T07:55:07.696Z,4.20
2022-09-26T07:56:07.695Z,4.70
2022-09-26T07:57:07.654Z,4.10
2022-09-26T07:58:07.661Z,4.40
2022-09-26T07:59:07.633Z,4.80
2022-09-26T08:00:07.635Z,3.50
2022-09-26T08:01:07.634Z,4.20
2022-09-26T08:02:07.776Z,4.10
2022-09-26T08:03:07.650Z,3.60
2022-09-26T08:04:07.592Z,4.30
2022-09-26T08:05:07.563Z,4.50
2022-09-26T08:06:07.577Z,4.30
2022-09-26T08:07:07.552Z,4.40
2022-09-26T08:08:07.563Z,3.50
2022-09-26T08:09:07.533Z,4.00
2022-09-26T08:10:07.531Z,3.80
2022-09-26T08:11:07.502Z,4.20
2022-09-26T08:12:07.514Z,4.40
2022-09-26T08:13:08.399Z,4.20
2022-09-26T08:14:08.315Z,3.60
2022-09-26T08:15:07.655Z,3.80
2022-09-26T08:16:08.414Z,3.80
2022-09-26T08:17:11.912Z,4.40
2022-09-26T08:18:09.197Z,2.80
2022-09-26T08:19:07.468Z,3.50
2022-09-26T08:20:07.423Z,4.20
2022-09-26T08:21:07.392Z,4.00
2022-09-26T08:22:08.294Z,3.90
2022-09-26T08:23:07.381Z,3.80
2022-09-26T08:24:07.384Z,3.10
2022-09-26T08:25:07.343Z,2.70
2022-09-26T08:26:07.352Z,3.80
2022-09-26T08:27:07.324Z,3.40
2022-09-26T08:28:07.331Z,2.70
2022-09-26T08:29:07.305Z,2.70
2022-09-26T08:30:07.302Z,3.10
2022-09-26T08:31:07.356Z,3.30
2022-09-26T08:32:07.276Z,3.20
2022-09-26T08:33:07.343Z,3.10
2022-09-26T08:34:07.262Z,3.70
2022-09-26T08:35:07.236Z,3.20
2022-09-26T08:36:07.232Z,3.90
2022-09-26T08:37:07.282Z,3.30
2022-09-26T08:38:07.213Z,3.10
2022-09-26T08:39:07.263Z,2.70
2022-09-26T08:40:07.183Z,2.90
2022-09-26T08:41:07.427Z,2.50
2022-09-26T08:42:07.163Z,2.90
2022-09-26T08:43:07.180Z,2.90
2022-09-26T08:44:07.175Z,2.90
2022-09-26T08:45:07.105Z,3.10
2022-09-26T08:46:07.140Z,2.20
2022-09-26T08:47:07.104Z,2.60
2022-09-26T08:48:07.113Z,2.60
2022-09-26T08:49:07.066Z,2.20
2022-09-26T08:50:07.072Z,2.70
2022-09-26T08:51:07.068Z,2.60
2022-09-26T08:52:07.405Z,2.40
2022-09-26T08:53:07.127Z,2.30
2022-09-26T08:54:07.141Z,2.60
2022-09-26T08:55:07.725Z,2.70
2022-09-26T08:56:07.006Z,2.40
2022-09-26T08:57:06.970Z,3.20
2022-09-26T08:58:06.985Z,2.30
2022-09-26T08:59:06.944Z,2.40
2022-09-26T09:00:06.954Z,2.30
2022-09-26T09:01:06.923Z,2.70
2022-09-26T09:02:07.012Z,2.40
2022-09-26T09:03:06.986Z,2.10
2022-09-26T09:04:06.990Z,2.30
2022-09-26T09:05:06.880Z,2.60
2022-09-26T09:06:06.882Z,2.40
2022-09-26T09:07:06.852Z,1.90
2022-09-26T09:08:06.852Z,2.50
2022-09-26T09:09:06.822Z,2.10
2022-09-26T09:10:06.830Z,1.90
2022-09-26T09:11:06.804Z,1.70
2022-09-26T09:12:06.809Z,2.00
2022-09-26T09:13:06.783Z,2.40
2022-09-26T09:14:06.838Z,1.90
2022-09-26T09:15:25.866Z,2.00
2022-09-26T09:16:08.172Z,2.10
2022-09-26T09:17:06.734Z,2.10
2022-09-26T09:18:09.989Z,2.20
2022-09-26T09:19:07.712Z,1.80
2022-09-26T09:20:06.715Z,1.90
2022-09-26T09:21:06.687Z,2.00
2022-09-26T09:22:06.692Z,1.70
2022-09-26T09:23:06.663Z,2.00
2022-09-26T09:24:06.775Z,2.00
2022-09-26T09:25:06.643Z,1.80
2022-09-26T09:28:08.769Z,1.70
2022-09-26T09:29:10.376Z,2.00
2022-09-26T09:30:15.812Z,2.10
2022-09-26T09:31:07.624Z,2.10
2022-09-26T09:32:06.574Z,2.10
2022-09-26T09:33:06.573Z,2.10
2022-09-26T09:34:06.632Z,2.10
2022-09-26T09:35:06.530Z,2.40
2022-09-26T09:36:07.028Z,2.20
2022-09-26T09:37:06.503Z,2.00
2022-09-26T09:38:06.508Z,2.00
2022-09-26T09:39:06.484Z,1.40
2022-09-26T09:40:06.489Z,1.70
2022-09-26T09:41:06.513Z,1.90
2022-09-26T09:42:06.464Z,1.70
2022-09-26T09:43:06.424Z,2.10
2022-09-26T09:44:06.528Z,2.30
2022-09-26T09:45:06.403Z,1.70
2022-09-26T09:46:06.467Z,2.30
2022-09-26T09:47:06.401Z,1.90
2022-09-26T09:48:06.383Z,1.80
2022-09-26T09:49:06.395Z,1.90
2022-09-26T09:50:06.380Z,2.00
2022-09-26T09:51:06.339Z,1.90
2022-09-26T09:52:06.343Z,1.70
2022-09-26T09:53:06.366Z,1.80
2022-09-26T09:54:06.341Z,1.90
2022-09-26T09:55:06.303Z,1.70
2022-09-26T09:56:07.213Z,1.70
2022-09-26T09:57:06.296Z,1.80
2022-09-26T09:58:06.271Z,1.80
2022-09-26T09:59:06.242Z,2.00
2022-09-26T10:00:06.243Z,1.70
2022-09-26T10:01:06.213Z,1.60
2022-09-26T10:02:06.221Z,1.90
2022-09-26T10:03:06.292Z,1.60
2022-09-26T10:04:06.253Z,1.90
2022-09-26T10:05:06.185Z,2.00
2022-09-26T10:06:08.591Z,1.50
2022-09-26T10:07:07.151Z,1.80
2022-09-26T10:08:06.156Z,2.20
2022-09-26T10:09:35.260Z,1.70
2022-09-26T10:10:07.132Z,1.70
2022-09-26T10:11:06.112Z,1.60
2022-09-26T10:12:06.113Z,1.60
2022-09-26T10:13:06.084Z,1.90
2022-09-26T10:14:06.115Z,1.60
2022-09-26T10:15:06.072Z,1.90
2022-09-26T10:16:06.118Z,1.60
2022-09-26T10:17:06.767Z,2.10
2022-09-26T10:18:24.086Z,2.10
2022-09-26T10:19:07.042Z,2.00
2022-09-26T10:20:06.033Z,2.10
2022-09-26T10:21:06.013Z,2.10
2022-09-26T10:22:05.994Z,2.70
2022-09-26T10:23:05.994Z,2.30
2022-09-26T10:24:05.975Z,2.20
2022-09-26T10:25:05.983Z,2.30
2022-09-26T10:26:05.945Z,2.50
2022-09-26T10:27:05.943Z,2.30
2022-09-26T10:28:06.705Z,2.70
2022-09-26T10:29:13.154Z,2.20
2022-09-26T10:30:05.896Z,2.40
2022-09-26T10:31:05.940Z,2.50
2022-09-26T10:32:05.876Z,2.50
2022-09-26T10:33:05.884Z,2.00
2022-09-26T10:34:05.918Z,2.30
2022-09-26T10:35:05.856Z,2.10
2022-09-26T10:36:05.826Z,2.00
2022-09-26T10:37:05.835Z,2.20
2022-09-26T10:38:06.537Z,2.30
2022-09-26T10:39:06.707Z,2.20
2022-09-26T10:40:05.809Z,2.50
2022-09-26T10:41:05.883Z,2.20
2022-09-26T10:42:05.766Z,2.00
2022-09-26T10:43:05.768Z,1.80
2022-09-26T10:44:05.845Z,1.70
2022-09-26T10:45:05.798Z,2.20
2022-09-26T10:46:05.803Z,1.60
2022-09-26T10:47:05.716Z,1.60
2022-09-26T10:48:05.707Z,1.80
2022-09-26T10:49:05.696Z,2.00
2022-09-26T10:50:05.727Z,1.90
2022-09-26T10:51:05.679Z,1.50
2022-09-26T10:52:05.647Z,1.80
2022-09-26T10:53:05.654Z,2.30
2022-09-26T10:54:05.628Z,1.70
2022-09-26T10:55:05.634Z,1.50
2022-09-26T10:56:06.447Z,1.50
2022-09-26T10:57:05.636Z,2.00
2022-09-26T10:58:11.399Z,2.40
2022-09-26T10:59:06.657Z,2.10
2022-09-26T11:00:05.557Z,2.00
2022-09-26T11:01:05.578Z,2.10
2022-09-26T11:02:05.595Z,2.20
2022-09-26T11:03:05.545Z,2.10
2022-09-26T11:04:05.588Z,2.10
2022-09-26T11:05:05.517Z,1.90
2022-09-26T11:06:05.506Z,2.10
2022-09-26T11:07:05.505Z,1.70
2022-09-26T11:08:05.470Z,1.90
2022-09-26T11:09:05.474Z,2.20
2022-09-26T11:10:05.446Z,2.00
2022-09-26T11:11:05.445Z,2.10
2022-09-26T11:12:05.555Z,1.90
2022-09-26T11:13:05.446Z,2.40
2022-09-26T11:14:05.405Z,2.20
2022-09-26T11:15:05.406Z,2.00
2022-09-26T11:16:05.432Z,2.40
2022-09-26T11:17:05.413Z,2.10
2022-09-26T11:18:06.255Z,2.20
2022-09-26T11:19:06.213Z,2.20
2022-09-26T11:20:05.346Z,2.20
2022-09-26T11:21:14.339Z,2.20
2022-09-26T11:22:08.389Z,2.10
2022-09-26T11:23:05.337Z,2.10
2022-09-26T11:24:05.305Z,2.00
2022-09-26T11:25:05.295Z,2.00
2022-09-26T11:26:05.275Z,2.20
2022-09-26T11:27:05.288Z,2.50
2022-09-26T11:28:05.255Z,2.50
2022-09-26T11:29:05.247Z,2.30
2022-09-26T11:30:05.262Z,2.50
2022-09-26T11:31:05.411Z,2.40
2022-09-26T11:32:05.206Z,2.30
2022-09-26T11:33:05.206Z,2.60
2022-09-26T11:34:05.199Z,2.40
2022-09-26T11:35:05.193Z,2.60
2022-09-26T11:36:05.163Z,2.10
2022-09-26T11:37:05.176Z,2.30
2022-09-26T11:38:05.167Z,2.50
2022-09-26T11:39:06.066Z,1.70
2022-09-26T11:40:09.549Z,2.60
2022-09-26T11:41:05.149Z,2.20
2022-09-26T11:42:05.095Z,2.60
2022-09-26T11:43:05.095Z,2.40
2022-09-26T11:44:05.104Z,2.50
2022-09-26T11:45:05.156Z,2.80
2022-09-26T11:46:05.114Z,2.50
2022-09-26T11:47:05.050Z,2.80
2022-09-26T11:48:05.026Z,2.80
2022-09-26T11:49:05.036Z,2.40
2022-09-26T11:50:05.050Z,2.70
2022-09-26T11:51:05.067Z,2.40
2022-09-26T11:52:05.005Z,2.20
2022-09-26T11:53:04.986Z,2.40
2022-09-26T11:54:04.976Z,2.40
2022-09-26T11:55:04.987Z,2.20
2022-09-26T11:56:05.201Z,2.40
2022-09-26T11:57:04.947Z,2.60
2022-09-26T11:58:05.006Z,2.40
2022-09-26T11:59:05.645Z,2.70
2022-09-26T12:00:05.811Z,2.80
2022-09-26T12:01:04.910Z,2.70
2022-09-26T12:02:04.877Z,2.60
2022-09-26T12:03:05.011Z,2.90
2022-09-26T12:04:04.986Z,2.80
2022-09-26T12:05:04.865Z,3.10
2022-09-26T12:06:04.864Z,3.10
2022-09-26T12:07:04.836Z,3.10
2022-09-26T12:08:04.815Z,2.90
2022-09-26T12:09:04.820Z,3.00
2022-09-26T12:10:04.814Z,2.90
2022-09-26T12:11:04.796Z,2.80
2022-09-26T12:12:04.773Z,3.40
2022-09-26T12:13:04.777Z,3.10
2022-09-26T12:14:04.757Z,2.80
2022-09-26T12:15:04.758Z,3.20
2022-09-26T12:16:04.788Z,2.70
2022-09-26T12:17:04.724Z,2.90
2022-09-26T12:18:05.260Z,2.90
2022-09-26T12:19:05.524Z,2.70
2022-09-26T12:20:04.686Z,2.60
2022-09-26T12:21:04.676Z,2.30
2022-09-26T12:22:04.663Z,2.80
2022-09-26T12:23:04.875Z,2.30
2022-09-26T12:24:04.636Z,2.40
2022-09-26T12:25:04.667Z,2.80
2022-09-26T12:26:04.985Z,2.90
2022-09-26T12:27:04.616Z,2.80
2022-09-26T12:28:04.586Z,2.50
2022-09-26T12:29:04.588Z,2.20
2022-09-26T12:30:04.566Z,3.10
2022-09-26T12:31:04.590Z,2.20
2022-09-26T12:32:04.586Z,2.70
2022-09-26T12:33:04.545Z,2.90
2022-09-26T12:34:04.635Z,2.80
2022-09-26T12:35:05.156Z,2.70
2022-09-26T12:36:04.496Z,2.60
2022-09-26T12:37:04.505Z,2.80
2022-09-26T12:38:04.505Z,2.50
2022-09-26T12:39:04.495Z,2.50
2022-09-26T12:40:04.494Z,2.80
2022-09-26T12:41:05.232Z,2.40
2022-09-26T12:42:04.474Z,2.40
2022-09-26T12:43:04.438Z,2.20
2022-09-26T12:44:04.426Z,2.40
2022-09-26T12:45:05.336Z,2.70
2022-09-26T12:46:04.458Z,2.40
2022-09-26T12:47:04.398Z,2.30
2022-09-26T12:48:04.378Z,2.40
2022-09-26T12:49:04.365Z,2.40
2022-09-26T12:50:04.337Z,1.90
2022-09-26T12:51:05.269Z,2.10
2022-09-26T12:52:04.347Z,2.10
2022-09-26T12:53:04.326Z,2.20
2022-09-26T12:54:05.004Z,2.20
2022-09-26T12:55:04.313Z,2.00
2022-09-26T12:56:04.278Z,2.10
2022-09-26T12:57:04.314Z,1.90
2022-09-26T12:58:04.256Z,1.70
2022-09-26T12:59:04.255Z,1.90
2022-09-26T13:00:04.246Z,1.80
2022-09-26T13:01:04.254Z,1.90
2022-09-26T13:02:04.292Z,1.50
2022-09-26T13:03:04.293Z,1.80
2022-09-26T13:04:04.308Z,2.00
2022-09-26T13:05:04.199Z,2.30
2022-09-26T13:06:08.439Z,1.60
2022-09-26T13:07:20.459Z,2.20
2022-09-26T13:08:05.146Z,1.70
2022-09-26T13:09:04.364Z,2.20
2022-09-26T13:10:04.193Z,2.60
2022-09-26T13:11:04.125Z,1.80
2022-09-26T13:12:04.097Z,1.70
2022-09-26T13:13:04.936Z,1.50
2022-09-26T13:14:04.107Z,1.70
2022-09-26T13:15:04.109Z,1.50
2022-09-26T13:16:04.120Z,1.50
2022-09-26T13:17:04.055Z,1.70
2022-09-26T13:18:04.096Z,1.80
2022-09-26T13:19:04.056Z,1.60
2022-09-26T13:20:04.784Z,1.60
2022-09-26T13:21:04.935Z,1.40